sensor_id;sensor_type;location;lat;lon;timestamp;P1;durP1;ratioP1;P2;durP2;ratioP2
10957;SDS011;5531;42.570;23.676;2023-05-29T00:01:10;7.30;;;5.97;;
10957;SDS011;5531;42.570;23.676;2023-05-29T00:03:43;6.72;;;5.55;;
10957;SDS011;5531;42.570;23.676;2023-05-29T00:06:13;7.20;;;5.20;;
10957;SDS011;5531;42.570;23.676;2023-05-29T00:08:42;5.88;;;5.25;;
10957;SDS011;5531;42.570;23.676;2023-05-29T00:11:11;7.28;;;5.75;;
10957;SDS011;5531;42.570;23.676;2023-05-29T00:13:41;7.50;;;6.10;;
10957;SDS011;5531;42.570;23.676;2023-05-29T00:16:12;6.70;;;5.90;;
10957;SDS011;5531;42.570;23.676;2023-05-29T00:18:43;8.27;;;6.18;;
10957;SDS011;5531;42.570;23.676;2023-05-29T00:21:13;7.25;;;5.63;;
10957;SDS011;5531;42.570;23.676;2023-05-29T00:23:42;7.00;;;6.20;;
10957;SDS011;5531;42.570;23.676;2023-05-29T00:26:11;8.18;;;6.80;;
10957;SDS011;5531;42.570;23.676;2023-05-29T00:28:42;7.80;;;5.97;;
10957;SDS011;5531;42.570;23.676;2023-05-29T00:31:13;7.60;;;6.60;;
10957;SDS011;5531;42.570;23.676;2023-05-29T00:33:43;8.45;;;6.05;;
10957;SDS011;5531;42.570;23.676;2023-05-29T00:36:12;6.88;;;6.20;;
10957;SDS011;5531;42.570;23.676;2023-05-29T00:38:41;6.68;;;5.93;;
10957;SDS011;5531;42.570;23.676;2023-05-29T00:41:12;7.40;;;6.20;;
10957;SDS011;5531;42.570;23.676;2023-05-29T00:43:42;7.70;;;6.90;;
10957;SDS011;5531;42.570;23.676;2023-05-29T00:46:14;8.23;;;7.35;;
10957;SDS011;5531;42.570;23.676;2023-05-29T00:48:45;7.70;;;6.90;;
10957;SDS011;5531;42.570;23.676;2023-05-29T00:51:15;8.35;;;7.40;;
10957;SDS011;5531;42.570;23.676;2023-05-29T00:53:45;8.98;;;7.38;;
10957;SDS011;5531;42.570;23.676;2023-05-29T00:56:14;8.90;;;8.00;;
10957;SDS011;5531;42.570;23.676;2023-05-29T00:58:43;8.85;;;7.88;;
10957;SDS011;5531;42.570;23.676;2023-05-29T01:01:15;8.77;;;7.88;;
10957;SDS011;5531;42.570;23.676;2023-05-29T01:03:44;9.55;;;7.10;;
10957;SDS011;5531;42.570;23.676;2023-05-29T01:06:13;7.68;;;6.97;;
10957;SDS011;5531;42.570;23.676;2023-05-29T01:08:42;8.18;;;6.50;;
10957;SDS011;5531;42.570;23.676;2023-05-29T01:11:12;7.53;;;6.72;;
10957;SDS011;5531;42.570;23.676;2023-05-29T01:13:50;10.25;;;7.00;;
10957;SDS011;5531;42.570;23.676;2023-05-29T01:16:26;7.03;;;6.32;;
10957;SDS011;5531;42.570;23.676;2023-05-29T01:19:07;7.93;;;6.15;;
10957;SDS011;5531;42.570;23.676;2023-05-29T01:21:49;7.60;;;6.03;;
10957;SDS011;5531;42.570;23.676;2023-05-29T01:24:32;9.23;;;6.28;;
10957;SDS011;5531;42.570;23.676;2023-05-29T01:27:08;8.40;;;6.80;;
10957;SDS011;5531;42.570;23.676;2023-05-29T01:29:39;6.82;;;6.22;;
10957;SDS011;5531;42.570;23.676;2023-05-29T01:32:11;6.75;;;6.05;;
10957;SDS011;5531;42.570;23.676;2023-05-29T01:34:40;8.65;;;6.60;;
10957;SDS011;5531;42.570;23.676;2023-05-29T01:37:09;8.20;;;6.53;;
10957;SDS011;5531;42.570;23.676;2023-05-29T01:39:38;7.20;;;6.47;;
10957;SDS011;5531;42.570;23.676;2023-05-29T01:42:09;7.65;;;6.95;;
10957;SDS011;5531;42.570;23.676;2023-05-29T01:44:40;6.85;;;6.15;;
10957;SDS011;5531;42.570;23.676;2023-05-29T01:47:09;7.72;;;6.55;;
10957;SDS011;5531;42.570;23.676;2023-05-29T01:49:39;8.05;;;6.22;;
10957;SDS011;5531;42.570;23.676;2023-05-29T01:52:09;8.25;;;6.53;;
10957;SDS011;5531;42.570;23.676;2023-05-29T01:54:38;6.90;;;6.20;;
10957;SDS011;5531;42.570;23.676;2023-05-29T01:57:10;7.22;;;6.53;;
10957;SDS011;5531;42.570;23.676;2023-05-29T01:59:40;7.68;;;6.18;;
10957;SDS011;5531;42.570;23.676;2023-05-29T02:02:09;7.10;;;6.30;;
10957;SDS011;5531;42.570;23.676;2023-05-29T02:04:39;7.43;;;6.18;;
10957;SDS011;5531;42.570;23.676;2023-05-29T02:07:08;7.78;;;6.38;;
10957;SDS011;5531;42.570;23.676;2023-05-29T02:09:37;6.95;;;6.07;;
10957;SDS011;5531;42.570;23.676;2023-05-29T02:12:06;7.65;;;6.28;;
10957;SDS011;5531;42.570;23.676;2023-05-29T02:14:38;7.10;;;6.40;;
10957;SDS011;5531;42.570;23.676;2023-05-29T02:17:07;6.88;;;6.18;;
10957;SDS011;5531;42.570;23.676;2023-05-29T02:19:37;7.45;;;5.88;;
10957;SDS011;5531;42.570;23.676;2023-05-29T02:22:06;6.60;;;5.78;;
10957;SDS011;5531;42.570;23.676;2023-05-29T02:24:36;6.85;;;6.13;;
10957;SDS011;5531;42.570;23.676;2023-05-29T02:27:05;7.43;;;6.00;;
10957;SDS011;5531;42.570;23.676;2023-05-29T02:29:34;7.47;;;6.47;;
10957;SDS011;5531;42.570;23.676;2023-05-29T02:32:07;9.32;;;5.90;;
10957;SDS011;5531;42.570;23.676;2023-05-29T02:34:35;8.65;;;6.88;;
10957;SDS011;5531;42.570;23.676;2023-05-29T02:37:04;7.78;;;6.40;;
10957;SDS011;5531;42.570;23.676;2023-05-29T02:39:33;8.50;;;6.93;;
10957;SDS011;5531;42.570;23.676;2023-05-29T02:42:02;9.30;;;8.05;;
10957;SDS011;5531;42.570;23.676;2023-05-29T02:44:32;7.93;;;7.13;;
10957;SDS011;5531;42.570;23.676;2023-05-29T02:47:01;8.90;;;7.45;;
10957;SDS011;5531;42.570;23.676;2023-05-29T02:49:32;8.23;;;7.20;;
10957;SDS011;5531;42.570;23.676;2023-05-29T02:52:04;8.05;;;7.25;;
10957;SDS011;5531;42.570;23.676;2023-05-29T02:54:34;9.07;;;7.28;;
10957;SDS011;5531;42.570;23.676;2023-05-29T02:57:03;8.07;;;6.85;;
10957;SDS011;5531;42.570;23.676;2023-05-29T02:59:32;7.63;;;6.82;;
10957;SDS011;5531;42.570;23.676;2023-05-29T03:02:01;7.30;;;6.60;;
10957;SDS011;5531;42.570;23.676;2023-05-29T03:04:33;9.63;;;7.30;;
10957;SDS011;5531;42.570;23.676;2023-05-29T03:07:02;8.57;;;7.00;;
10957;SDS011;5531;42.570;23.676;2023-05-29T03:09:32;7.43;;;6.43;;
10957;SDS011;5531;42.570;23.676;2023-05-29T03:12:01;9.32;;;6.70;;
10957;SDS011;5531;42.570;23.676;2023-05-29T03:14:30;7.10;;;6.40;;
10957;SDS011;5531;42.570;23.676;2023-05-29T03:17:03;7.95;;;7.07;;
10957;SDS011;5531;42.570;23.676;2023-05-29T03:19:36;8.27;;;6.75;;
10957;SDS011;5531;42.570;23.676;2023-05-29T03:22:05;7.07;;;6.38;;
10957;SDS011;5531;42.570;23.676;2023-05-29T03:24:34;8.30;;;6.63;;
10957;SDS011;5531;42.570;23.676;2023-05-29T03:27:03;9.55;;;7.10;;
10957;SDS011;5531;42.570;23.676;2023-05-29T03:29:33;7.43;;;6.43;;
10957;SDS011;5531;42.570;23.676;2023-05-29T03:32:03;7.63;;;6.93;;
10957;SDS011;5531;42.570;23.676;2023-05-29T03:34:32;9.13;;;7.00;;
10957;SDS011;5531;42.570;23.676;2023-05-29T03:37:04;7.90;;;7.10;;
10957;SDS011;5531;42.570;23.676;2023-05-29T03:39:33;7.93;;;7.03;;
10957;SDS011;5531;42.570;23.676;2023-05-29T03:42:02;8.40;;;7.38;;
10957;SDS011;5531;42.570;23.676;2023-05-29T03:44:31;7.65;;;6.85;;
10957;SDS011;5531;42.570;23.676;2023-05-29T03:47:00;7.03;;;6.32;;
10957;SDS011;5531;42.570;23.676;2023-05-29T03:49:29;9.15;;;6.80;;
10957;SDS011;5531;42.570;23.676;2023-05-29T03:51:58;7.72;;;6.57;;
10957;SDS011;5531;42.570;23.676;2023-05-29T03:54:31;7.45;;;6.65;;
10957;SDS011;5531;42.570;23.676;2023-05-29T03:57:01;8.07;;;6.70;;
10957;SDS011;5531;42.570;23.676;2023-05-29T03:59:32;7.53;;;6.70;;
10957;SDS011;5531;42.570;23.676;2023-05-29T04:02:02;7.63;;;6.45;;
10957;SDS011;5531;42.570;23.676;2023-05-29T04:04:32;7.07;;;6.32;;
10957;SDS011;5531;42.570;23.676;2023-05-29T04:07:01;9.18;;;6.45;;
10957;SDS011;5531;42.570;23.676;2023-05-29T04:09:33;8.15;;;6.38;;
10957;SDS011;5531;42.570;23.676;2023-05-29T04:12:02;7.80;;;6.20;;
10957;SDS011;5531;42.570;23.676;2023-05-29T04:14:31;7.18;;;6.47;;
10957;SDS011;5531;42.570;23.676;2023-05-29T04:17:00;8.85;;;6.57;;
10957;SDS011;5531;42.570;23.676;2023-05-29T04:19:30;7.97;;;6.10;;
10957;SDS011;5531;42.570;23.676;2023-05-29T04:21:59;7.50;;;6.25;;
10957;SDS011;5531;42.570;23.676;2023-05-29T04:24:28;6.55;;;5.85;;
10957;SDS011;5531;42.570;23.676;2023-05-29T04:27:00;7.07;;;5.53;;
10957;SDS011;5531;42.570;23.676;2023-05-29T04:29:30;6.45;;;5.75;;
10957;SDS011;5531;42.570;23.676;2023-05-29T04:32:00;7.30;;;5.97;;
10957;SDS011;5531;42.570;23.676;2023-05-29T04:34:29;7.47;;;6.30;;
10957;SDS011;5531;42.570;23.676;2023-05-29T04:36:59;6.68;;;5.65;;
10957;SDS011;5531;42.570;23.676;2023-05-29T04:39:28;7.07;;;5.90;;
10957;SDS011;5531;42.570;23.676;2023-05-29T04:42:00;6.03;;;5.43;;
10957;SDS011;5531;42.570;23.676;2023-05-29T04:44:29;6.50;;;5.90;;
10957;SDS011;5531;42.570;23.676;2023-05-29T04:46:58;7.35;;;5.85;;
10957;SDS011;5531;42.570;23.676;2023-05-29T04:49:28;6.53;;;5.93;;
10957;SDS011;5531;42.570;23.676;2023-05-29T04:51:57;5.57;;;5.07;;
10957;SDS011;5531;42.570;23.676;2023-05-29T04:54:28;6.72;;;5.25;;
10957;SDS011;5531;42.570;23.676;2023-05-29T04:57:02;6.50;;;5.03;;
10957;SDS011;5531;42.570;23.676;2023-05-29T04:59:31;6.32;;;5.15;;
10957;SDS011;5531;42.570;23.676;2023-05-29T05:02:00;6.10;;;5.50;;
10957;SDS011;5531;42.570;23.676;2023-05-29T05:04:29;5.72;;;5.13;;
10957;SDS011;5531;42.570;23.676;2023-05-29T05:06:58;6.20;;;5.43;;
10957;SDS011;5531;42.570;23.676;2023-05-29T05:09:28;6.60;;;5.18;;
10957;SDS011;5531;42.570;23.676;2023-05-29T05:11:57;5.70;;;5.13;;
10957;SDS011;5531;42.570;23.676;2023-05-29T05:14:29;6.00;;;5.00;;
10957;SDS011;5531;42.570;23.676;2023-05-29T05:16:58;6.00;;;4.88;;
10957;SDS011;5531;42.570;23.676;2023-05-29T05:19:28;4.97;;;4.22;;
10957;SDS011;5531;42.570;23.676;2023-05-29T05:21:57;5.20;;;4.47;;
10957;SDS011;5531;42.570;23.676;2023-05-29T05:24:26;5.22;;;4.60;;
10957;SDS011;5531;42.570;23.676;2023-05-29T05:26:57;5.88;;;4.50;;
10957;SDS011;5531;42.570;23.676;2023-05-29T05:29:29;4.43;;;4.03;;
10957;SDS011;5531;42.570;23.676;2023-05-29T05:31:58;5.20;;;4.13;;
10957;SDS011;5531;42.570;23.676;2023-05-29T05:34:27;4.03;;;3.63;;
10957;SDS011;5531;42.570;23.676;2023-05-29T05:36:56;4.63;;;3.90;;
10957;SDS011;5531;42.570;23.676;2023-05-29T05:39:25;4.57;;;3.92;;
10957;SDS011;5531;42.570;23.676;2023-05-29T05:41:55;5.35;;;4.28;;
10957;SDS011;5531;42.570;23.676;2023-05-29T05:44:24;4.20;;;3.80;;
10957;SDS011;5531;42.570;23.676;2023-05-29T05:46:55;5.90;;;4.47;;
10957;SDS011;5531;42.570;23.676;2023-05-29T05:49:24;6.10;;;3.95;;
10957;SDS011;5531;42.570;23.676;2023-05-29T05:51:54;5.57;;;4.10;;
10957;SDS011;5531;42.570;23.676;2023-05-29T05:54:23;4.15;;;3.70;;
10957;SDS011;5531;42.570;23.676;2023-05-29T05:56:52;6.90;;;3.50;;
10957;SDS011;5531;42.570;23.676;2023-05-29T05:59:21;4.95;;;4.05;;
10957;SDS011;5531;42.570;23.676;2023-05-29T06:01:50;4.88;;;4.00;;
10957;SDS011;5531;42.570;23.676;2023-05-29T06:04:23;5.00;;;3.70;;
10957;SDS011;5531;42.570;23.676;2023-05-29T06:06:52;4.72;;;3.58;;
10957;SDS011;5531;42.570;23.676;2023-05-29T06:09:21;4.45;;;3.30;;
10957;SDS011;5531;42.570;23.676;2023-05-29T06:11:51;4.60;;;3.50;;
10957;SDS011;5531;42.570;23.676;2023-05-29T06:14:20;4.10;;;3.60;;
10957;SDS011;5531;42.570;23.676;2023-05-29T06:16:49;4.10;;;3.40;;
10957;SDS011;5531;42.570;23.676;2023-05-29T06:19:18;3.67;;;3.38;;
10957;SDS011;5531;42.570;23.676;2023-05-29T06:21:50;4.75;;;3.88;;
10957;SDS011;5531;42.570;23.676;2023-05-29T06:24:19;4.40;;;4.00;;
10957;SDS011;5531;42.570;23.676;2023-05-29T06:26:48;4.18;;;3.78;;
10957;SDS011;5531;42.570;23.676;2023-05-29T06:29:18;4.00;;;3.67;;
10957;SDS011;5531;42.570;23.676;2023-05-29T06:31:47;4.70;;;4.13;;
10957;SDS011;5531;42.570;23.676;2023-05-29T06:34:16;7.28;;;4.20;;
10957;SDS011;5531;42.570;23.676;2023-05-29T06:36:45;4.97;;;3.85;;
10957;SDS011;5531;42.570;23.676;2023-05-29T06:39:17;4.85;;;4.03;;
10957;SDS011;5531;42.570;23.676;2023-05-29T06:41:46;4.78;;;4.28;;
10957;SDS011;5531;42.570;23.676;2023-05-29T06:44:15;5.97;;;3.97;;
10957;SDS011;5531;42.570;23.676;2023-05-29T06:46:44;4.20;;;3.80;;
10957;SDS011;5531;42.570;23.676;2023-05-29T06:49:13;3.75;;;3.40;;
10957;SDS011;5531;42.570;23.676;2023-05-29T06:51:42;4.07;;;3.60;;
10957;SDS011;5531;42.570;23.676;2023-05-29T06:54:12;4.63;;;3.70;;
10957;SDS011;5531;42.570;23.676;2023-05-29T06:56:43;5.00;;;3.72;;
10957;SDS011;5531;42.570;23.676;2023-05-29T06:59:13;4.15;;;3.75;;
10957;SDS011;5531;42.570;23.676;2023-05-29T07:01:44;3.75;;;3.40;;
10957;SDS011;5531;42.570;23.676;2023-05-29T07:04:13;3.90;;;3.42;;
10957;SDS011;5531;42.570;23.676;2023-05-29T07:06:42;4.82;;;3.25;;
10957;SDS011;5531;42.570;23.676;2023-05-29T07:09:11;4.45;;;3.60;;
10957;SDS011;5531;42.570;23.676;2023-05-29T07:11:40;5.15;;;3.45;;
10957;SDS011;5531;42.570;23.676;2023-05-29T07:14:12;4.13;;;3.72;;
10957;SDS011;5531;42.570;23.676;2023-05-29T07:16:41;5.95;;;3.65;;
10957;SDS011;5531;42.570;23.676;2023-05-29T07:19:10;3.90;;;3.35;;
10957;SDS011;5531;42.570;23.676;2023-05-29T07:21:40;4.53;;;3.60;;
10957;SDS011;5531;42.570;23.676;2023-05-29T07:24:09;4.00;;;3.17;;
10957;SDS011;5531;42.570;23.676;2023-05-29T07:26:38;4.88;;;4.13;;
10957;SDS011;5531;42.570;23.676;2023-05-29T07:29:09;5.68;;;4.07;;
10957;SDS011;5531;42.570;23.676;2023-05-29T07:31:39;4.05;;;3.65;;
10957;SDS011;5531;42.570;23.676;2023-05-29T07:34:09;4.82;;;3.70;;
10957;SDS011;5531;42.570;23.676;2023-05-29T07:36:44;4.47;;;3.72;;
10957;SDS011;5531;42.570;23.676;2023-05-29T07:39:25;5.03;;;3.75;;
10957;SDS011;5531;42.570;23.676;2023-05-29T07:41:55;4.15;;;3.65;;
10957;SDS011;5531;42.570;23.676;2023-05-29T07:44:27;4.20;;;3.53;;
10957;SDS011;5531;42.570;23.676;2023-05-29T07:46:56;4.22;;;3.47;;
10957;SDS011;5531;42.570;23.676;2023-05-29T07:49:25;3.60;;;3.30;;
10957;SDS011;5531;42.570;23.676;2023-05-29T07:51:54;5.65;;;3.60;;
10957;SDS011;5531;42.570;23.676;2023-05-29T07:54:23;4.07;;;3.50;;
10957;SDS011;5531;42.570;23.676;2023-05-29T07:56:52;5.68;;;3.60;;
10957;SDS011;5531;42.570;23.676;2023-05-29T07:59:21;3.80;;;3.30;;
10957;SDS011;5531;42.570;23.676;2023-05-29T08:01:52;3.55;;;3.25;;
10957;SDS011;5531;42.570;23.676;2023-05-29T08:04:23;4.85;;;3.28;;
10957;SDS011;5531;42.570;23.676;2023-05-29T08:06:55;5.40;;;3.47;;
10957;SDS011;5531;42.570;23.676;2023-05-29T08:09:24;5.68;;;4.10;;
10957;SDS011;5531;42.570;23.676;2023-05-29T08:11:53;3.78;;;3.42;;
10957;SDS011;5531;42.570;23.676;2023-05-29T08:14:23;4.72;;;3.00;;
10957;SDS011;5531;42.570;23.676;2023-05-29T08:16:54;4.60;;;3.42;;
10957;SDS011;5531;42.570;23.676;2023-05-29T08:19:24;3.75;;;3.42;;
10957;SDS011;5531;42.570;23.676;2023-05-29T08:21:59;4.60;;;3.30;;
10957;SDS011;5531;42.570;23.676;2023-05-29T08:24:28;4.20;;;3.80;;
10957;SDS011;5531;42.570;23.676;2023-05-29T08:26:56;4.00;;;3.30;;
10957;SDS011;5531;42.570;23.676;2023-05-29T08:29:26;3.67;;;3.35;;
10957;SDS011;5531;42.570;23.676;2023-05-29T08:31:57;3.78;;;3.47;;
10957;SDS011;5531;42.570;23.676;2023-05-29T08:34:27;3.40;;;3.00;;
10957;SDS011;5531;42.570;23.676;2023-05-29T08:36:56;3.33;;;2.97;;
10957;SDS011;5531;42.570;23.676;2023-05-29T08:39:25;4.10;;;3.53;;
10957;SDS011;5531;42.570;23.676;2023-05-29T08:41:56;4.63;;;3.20;;
10957;SDS011;5531;42.570;23.676;2023-05-29T08:44:31;3.45;;;3.00;;
10957;SDS011;5531;42.570;23.676;2023-05-29T08:47:03;3.85;;;3.45;;
10957;SDS011;5531;42.570;23.676;2023-05-29T08:49:37;3.97;;;3.22;;
10957;SDS011;5531;42.570;23.676;2023-05-29T08:52:11;4.60;;;2.78;;
10957;SDS011;5531;42.570;23.676;2023-05-29T08:54:43;4.72;;;3.10;;
10957;SDS011;5531;42.570;23.676;2023-05-29T08:57:13;6.38;;;3.22;;
10957;SDS011;5531;42.570;23.676;2023-05-29T08:59:42;4.75;;;3.30;;
10957;SDS011;5531;42.570;23.676;2023-05-29T09:02:17;5.25;;;3.67;;
10957;SDS011;5531;42.570;23.676;2023-05-29T09:04:47;3.95;;;3.60;;
10957;SDS011;5531;42.570;23.676;2023-05-29T09:07:19;4.03;;;3.53;;
10957;SDS011;5531;42.570;23.676;2023-05-29T09:09:48;3.40;;;2.97;;
10957;SDS011;5531;42.570;23.676;2023-05-29T09:12:17;4.55;;;3.50;;
10957;SDS011;5531;42.570;23.676;2023-05-29T09:14:47;3.70;;;3.40;;
10957;SDS011;5531;42.570;23.676;2023-05-29T09:17:18;4.72;;;3.03;;
10957;SDS011;5531;42.570;23.676;2023-05-29T09:19:48;4.38;;;2.97;;
10957;SDS011;5531;42.570;23.676;2023-05-29T09:22:18;3.63;;;2.92;;
10957;SDS011;5531;42.570;23.676;2023-05-29T09:24:47;3.47;;;2.90;;
10957;SDS011;5531;42.570;23.676;2023-05-29T09:27:17;4.22;;;3.00;;
10957;SDS011;5531;42.570;23.676;2023-05-29T09:29:46;3.35;;;2.90;;
10957;SDS011;5531;42.570;23.676;2023-05-29T09:32:16;3.47;;;3.00;;
10957;SDS011;5531;42.570;23.676;2023-05-29T09:34:48;3.53;;;3.13;;
10957;SDS011;5531;42.570;23.676;2023-05-29T09:37:21;3.92;;;3.08;;
10957;SDS011;5531;42.570;23.676;2023-05-29T09:39:50;3.17;;;2.88;;
10957;SDS011;5531;42.570;23.676;2023-05-29T09:42:19;3.58;;;3.28;;
10957;SDS011;5531;42.570;23.676;2023-05-29T09:44:49;3.35;;;2.97;;
10957;SDS011;5531;42.570;23.676;2023-05-29T09:47:22;3.88;;;3.20;;
10957;SDS011;5531;42.570;23.676;2023-05-29T09:49:51;4.00;;;3.60;;
10957;SDS011;5531;42.570;23.676;2023-05-29T09:52:21;4.70;;;3.40;;
10957;SDS011;5531;42.570;23.676;2023-05-29T09:54:50;4.55;;;3.13;;
10957;SDS011;5531;42.570;23.676;2023-05-29T09:57:22;4.13;;;3.60;;
10957;SDS011;5531;42.570;23.676;2023-05-29T09:59:52;5.28;;;3.70;;
10957;SDS011;5531;42.570;23.676;2023-05-29T10:02:25;3.75;;;3.45;;
10957;SDS011;5531;42.570;23.676;2023-05-29T10:04:55;5.53;;;4.10;;
10957;SDS011;5531;42.570;23.676;2023-05-29T10:07:26;4.10;;;3.70;;
10957;SDS011;5531;42.570;23.676;2023-05-29T10:09:58;5.43;;;3.90;;
10957;SDS011;5531;42.570;23.676;2023-05-29T10:12:31;9.35;;;5.03;;
10957;SDS011;5531;42.570;23.676;2023-05-29T10:15:05;7.03;;;4.57;;
10957;SDS011;5531;42.570;23.676;2023-05-29T10:17:43;5.65;;;4.28;;
10957;SDS011;5531;42.570;23.676;2023-05-29T10:20:20;6.82;;;5.10;;
10957;SDS011;5531;42.570;23.676;2023-05-29T10:22:51;6.03;;;4.63;;
10957;SDS011;5531;42.570;23.676;2023-05-29T10:25:24;6.07;;;5.28;;
10957;SDS011;5531;42.570;23.676;2023-05-29T10:27:55;5.60;;;4.82;;
10957;SDS011;5531;42.570;23.676;2023-05-29T10:30:29;6.97;;;4.88;;
10957;SDS011;5531;42.570;23.676;2023-05-29T10:33:21;6.75;;;4.93;;
10957;SDS011;5531;42.570;23.676;2023-05-29T10:36:08;7.57;;;5.10;;
10957;SDS011;5531;42.570;23.676;2023-05-29T10:38:41;5.25;;;4.75;;
10957;SDS011;5531;42.570;23.676;2023-05-29T10:47:04;5.32;;;4.53;;
10957;SDS011;5531;42.570;23.676;2023-05-29T10:49:38;7.05;;;4.70;;
10957;SDS011;5531;42.570;23.676;2023-05-29T10:52:08;5.40;;;4.15;;
10957;SDS011;5531;42.570;23.676;2023-05-29T10:57:29;4.88;;;4.03;;
10957;SDS011;5531;42.570;23.676;2023-05-29T11:00:04;5.70;;;4.82;;
10957;SDS011;5531;42.570;23.676;2023-05-29T11:02:39;5.13;;;4.20;;
10957;SDS011;5531;42.570;23.676;2023-05-29T11:05:21;6.20;;;4.05;;
10957;SDS011;5531;42.570;23.676;2023-05-29T11:07:52;5.03;;;4.22;;
10957;SDS011;5531;42.570;23.676;2023-05-29T11:13:24;5.55;;;3.88;;
10957;SDS011;5531;42.570;23.676;2023-05-29T11:19:08;5.07;;;4.13;;
10957;SDS011;5531;42.570;23.676;2023-05-29T11:21:53;5.15;;;4.22;;
10957;SDS011;5531;42.570;23.676;2023-05-29T11:24:28;5.07;;;4.40;;
10957;SDS011;5531;42.570;23.676;2023-05-29T11:26:57;4.35;;;3.67;;
10957;SDS011;5531;42.570;23.676;2023-05-29T11:29:31;4.78;;;4.20;;
10957;SDS011;5531;42.570;23.676;2023-05-29T11:32:03;6.13;;;4.47;;
10957;SDS011;5531;42.570;23.676;2023-05-29T11:34:35;5.95;;;4.97;;
10957;SDS011;5531;42.570;23.676;2023-05-29T11:37:10;6.82;;;4.00;;
10957;SDS011;5531;42.570;23.676;2023-05-29T11:39:42;5.28;;;4.22;;
10957;SDS011;5531;42.570;23.676;2023-05-29T11:42:11;4.47;;;4.03;;
10957;SDS011;5531;42.570;23.676;2023-05-29T11:44:41;6.78;;;4.60;;
10957;SDS011;5531;42.570;23.676;2023-05-29T11:47:10;7.47;;;5.35;;
10957;SDS011;5531;42.570;23.676;2023-05-29T11:49:40;5.30;;;4.80;;
10957;SDS011;5531;42.570;23.676;2023-05-29T11:52:13;6.22;;;4.90;;
10957;SDS011;5531;42.570;23.676;2023-05-29T11:54:49;5.05;;;4.43;;
10957;SDS011;5531;42.570;23.676;2023-05-29T11:57:18;5.10;;;4.60;;
10957;SDS011;5531;42.570;23.676;2023-05-29T11:59:49;6.07;;;5.30;;
10957;SDS011;5531;42.570;23.676;2023-05-29T12:02:24;5.60;;;5.03;;
10957;SDS011;5531;42.570;23.676;2023-05-29T12:04:59;5.80;;;5.00;;
10957;SDS011;5531;42.570;23.676;2023-05-29T12:07:32;6.78;;;5.65;;
10957;SDS011;5531;42.570;23.676;2023-05-29T12:10:10;6.28;;;5.63;;
10957;SDS011;5531;42.570;23.676;2023-05-29T12:12:40;7.47;;;5.47;;
10957;SDS011;5531;42.570;23.676;2023-05-29T12:15:10;7.82;;;5.82;;
10957;SDS011;5531;42.570;23.676;2023-05-29T12:17:39;9.48;;;5.70;;
10957;SDS011;5531;42.570;23.676;2023-05-29T12:20:10;8.48;;;6.13;;
10957;SDS011;5531;42.570;23.676;2023-05-29T12:22:43;6.75;;;5.85;;
10957;SDS011;5531;42.570;23.676;2023-05-29T12:25:13;5.95;;;5.40;;
10957;SDS011;5531;42.570;23.676;2023-05-29T12:27:45;9.32;;;6.13;;
10957;SDS011;5531;42.570;23.676;2023-05-29T12:30:16;10.05;;;5.88;;
10957;SDS011;5531;42.570;23.676;2023-05-29T12:32:49;7.85;;;6.00;;
10957;SDS011;5531;42.570;23.676;2023-05-29T12:35:20;8.85;;;5.70;;
10957;SDS011;5531;42.570;23.676;2023-05-29T12:37:53;8.70;;;6.10;;
10957;SDS011;5531;42.570;23.676;2023-05-29T12:40:24;7.00;;;5.72;;
10957;SDS011;5531;42.570;23.676;2023-05-29T12:42:54;5.75;;;5.22;;
10957;SDS011;5531;42.570;23.676;2023-05-29T12:45:24;5.30;;;4.80;;
10957;SDS011;5531;42.570;23.676;2023-05-29T12:47:55;5.65;;;4.43;;
10957;SDS011;5531;42.570;23.676;2023-05-29T12:50:27;7.75;;;4.90;;
10957;SDS011;5531;42.570;23.676;2023-05-29T12:53:00;5.90;;;5.20;;
10957;SDS011;5531;42.570;23.676;2023-05-29T12:55:31;6.40;;;4.57;;
10957;SDS011;5531;42.570;23.676;2023-05-29T12:58:02;5.25;;;4.75;;
10957;SDS011;5531;42.570;23.676;2023-05-29T13:00:31;7.68;;;3.92;;
10957;SDS011;5531;42.570;23.676;2023-05-29T13:03:01;4.65;;;4.10;;
10957;SDS011;5531;42.570;23.676;2023-05-29T13:05:31;4.47;;;4.00;;
10957;SDS011;5531;42.570;23.676;2023-05-29T13:08:03;4.63;;;4.10;;
10957;SDS011;5531;42.570;23.676;2023-05-29T13:10:33;4.63;;;4.03;;
10957;SDS011;5531;42.570;23.676;2023-05-29T13:13:02;4.20;;;3.80;;
10957;SDS011;5531;42.570;23.676;2023-05-29T13:15:31;4.30;;;3.90;;
10957;SDS011;5531;42.570;23.676;2023-05-29T13:18:01;4.70;;;4.20;;
10957;SDS011;5531;42.570;23.676;2023-05-29T13:20:30;5.32;;;4.13;;
10957;SDS011;5531;42.570;23.676;2023-05-29T13:22:59;5.75;;;4.15;;
10957;SDS011;5531;42.570;23.676;2023-05-29T13:25:31;4.47;;;4.07;;
10957;SDS011;5531;42.570;23.676;2023-05-29T13:28:00;5.40;;;4.22;;
10957;SDS011;5531;42.570;23.676;2023-05-29T13:30:29;5.95;;;4.30;;
10957;SDS011;5531;42.570;23.676;2023-05-29T13:32:58;4.28;;;3.83;;
10957;SDS011;5531;42.570;23.676;2023-05-29T13:35:27;3.88;;;3.50;;
10957;SDS011;5531;42.570;23.676;2023-05-29T13:37:56;4.25;;;3.85;;
10957;SDS011;5531;42.570;23.676;2023-05-29T13:40:25;5.22;;;3.83;;
10957;SDS011;5531;42.570;23.676;2023-05-29T13:42:57;3.78;;;3.47;;
10957;SDS011;5531;42.570;23.676;2023-05-29T13:45:26;4.47;;;4.00;;
10957;SDS011;5531;42.570;23.676;2023-05-29T13:47:55;4.32;;;3.58;;
10957;SDS011;5531;42.570;23.676;2023-05-29T13:50:25;4.32;;;3.92;;
10957;SDS011;5531;42.570;23.676;2023-05-29T13:52:54;3.30;;;3.00;;
10957;SDS011;5531;42.570;23.676;2023-05-29T13:55:23;3.58;;;3.28;;
10957;SDS011;5531;42.570;23.676;2023-05-29T13:57:52;4.22;;;3.88;;
10957;SDS011;5531;42.570;23.676;2023-05-29T14:00:26;3.40;;;3.10;;
10957;SDS011;5531;42.570;23.676;2023-05-29T14:02:55;3.65;;;3.33;;
10957;SDS011;5531;42.570;23.676;2023-05-29T14:05:24;3.55;;;3.25;;
10957;SDS011;5531;42.570;23.676;2023-05-29T14:07:53;3.25;;;3.05;;
10957;SDS011;5531;42.570;23.676;2023-05-29T14:10:22;4.50;;;2.97;;
10957;SDS011;5531;42.570;23.676;2023-05-29T14:12:51;4.55;;;3.50;;
10957;SDS011;5531;42.570;23.676;2023-05-29T14:15:20;2.80;;;2.60;;
10957;SDS011;5531;42.570;23.676;2023-05-29T14:17:52;3.30;;;2.95;;
10957;SDS011;5531;42.570;23.676;2023-05-29T14:20:21;4.63;;;3.20;;
10957;SDS011;5531;42.570;23.676;2023-05-29T14:22:50;4.43;;;3.08;;
10957;SDS011;5531;42.570;23.676;2023-05-29T14:25:19;3.53;;;3.10;;
10957;SDS011;5531;42.570;23.676;2023-05-29T14:27:48;4.88;;;2.97;;
10957;SDS011;5531;42.570;23.676;2023-05-29T14:30:17;3.70;;;2.88;;
10957;SDS011;5531;42.570;23.676;2023-05-29T14:32:46;3.20;;;2.90;;
10957;SDS011;5531;42.570;23.676;2023-05-29T14:35:18;3.28;;;2.80;;
10957;SDS011;5531;42.570;23.676;2023-05-29T14:37:47;3.13;;;2.88;;
10957;SDS011;5531;42.570;23.676;2023-05-29T14:40:16;3.08;;;2.80;;
10957;SDS011;5531;42.570;23.676;2023-05-29T14:42:46;3.38;;;3.10;;
10957;SDS011;5531;42.570;23.676;2023-05-29T14:45:15;4.53;;;2.95;;
10957;SDS011;5531;42.570;23.676;2023-05-29T14:47:44;3.65;;;3.20;;
10957;SDS011;5531;42.570;23.676;2023-05-29T14:50:14;3.70;;;3.22;;
10957;SDS011;5531;42.570;23.676;2023-05-29T14:52:46;3.47;;;3.17;;
10957;SDS011;5531;42.570;23.676;2023-05-29T14:55:16;3.60;;;2.83;;
10957;SDS011;5531;42.570;23.676;2023-05-29T14:57:45;3.08;;;2.65;;
10957;SDS011;5531;42.570;23.676;2023-05-29T15:00:14;2.50;;;2.30;;
10957;SDS011;5531;42.570;23.676;2023-05-29T15:02:44;2.40;;;2.20;;
10957;SDS011;5531;42.570;23.676;2023-05-29T15:05:13;2.25;;;2.10;;
10957;SDS011;5531;42.570;23.676;2023-05-29T15:07:46;2.58;;;2.15;;
10957;SDS011;5531;42.570;23.676;2023-05-29T15:10:15;2.42;;;2.22;;
10957;SDS011;5531;42.570;23.676;2023-05-29T15:12:46;2.40;;;2.20;;
10957;SDS011;5531;42.570;23.676;2023-05-29T15:15:15;3.47;;;2.25;;
10957;SDS011;5531;42.570;23.676;2023-05-29T15:17:44;2.85;;;2.55;;
10957;SDS011;5531;42.570;23.676;2023-05-29T15:20:15;3.15;;;2.70;;
10957;SDS011;5531;42.570;23.676;2023-05-29T15:22:48;3.67;;;2.80;;